Le Roy, Illinois
Current Conditions -  °F | °C
As of 3:56 AM on Thursday 27 Nov 2014 (Local Time) from KBMI Reporting Station
Haze Haze  
Wind Chill: 12°   Ceiling: Unl
Heat Index: 23°   Visibility: 6mi
Dew Point: 19°   Wind: 12mph
Humidity: 85%   Direction: 310°NW
Pressure: 30.29"   Gusts: NA
Location:  40.35°N, 88.76°W
Report Text: KBMI 270956Z AUTO 31010KT 6SM BR FEW070 SCT090 M05/M07 A3029 RMK AO2 T10501072 SLP280
Loading
Personal Weather Stations






























Interactive Weather Map New forecast layout! Learn more

10-Day Weather Forecast

Advertisements
Track Severe Weather on mobile